sensor_id;sensor_type;location;lat;lon;timestamp;P1;durP1;ratioP1;P2;durP2;ratioP2
56736;SDS011;42618;51.226;4.910;2023-11-21T00:02:18;30.42;;;15.00;;
56736;SDS011;42618;51.226;4.910;2023-11-21T00:04:44;32.67;;;14.90;;
56736;SDS011;42618;51.226;4.910;2023-11-21T00:07:12;38.92;;;19.05;;
56736;SDS011;42618;51.226;4.910;2023-11-21T00:09:38;46.08;;;20.88;;
56736;SDS011;42618;51.226;4.910;2023-11-21T00:12:05;42.30;;;20.83;;
56736;SDS011;42618;51.226;4.910;2023-11-21T00:14:32;41.05;;;19.92;;
56736;SDS011;42618;51.226;4.910;2023-11-21T00:16:59;42.30;;;19.67;;
56736;SDS011;42618;51.226;4.910;2023-11-21T00:19:26;41.63;;;19.80;;
56736;SDS011;42618;51.226;4.910;2023-11-21T00:21:53;49.20;;;22.10;;
56736;SDS011;42618;51.226;4.910;2023-11-21T00:24:19;41.85;;;20.05;;
56736;SDS011;42618;51.226;4.910;2023-11-21T00:26:46;39.20;;;19.40;;
56736;SDS011;42618;51.226;4.910;2023-11-21T00:29:15;43.10;;;19.92;;
56736;SDS011;42618;51.226;4.910;2023-11-21T00:31:44;41.03;;;18.65;;
56736;SDS011;42618;51.226;4.910;2023-11-21T00:34:11;48.78;;;19.25;;
56736;SDS011;42618;51.226;4.910;2023-11-21T00:36:38;46.90;;;22.13;;
56736;SDS011;42618;51.226;4.910;2023-11-21T00:39:05;51.35;;;21.23;;
56736;SDS011;42618;51.226;4.910;2023-11-21T00:41:33;43.60;;;19.25;;
56736;SDS011;42618;51.226;4.910;2023-11-21T00:44:00;44.08;;;20.65;;
56736;SDS011;42618;51.226;4.910;2023-11-21T00:46:27;45.45;;;19.23;;
56736;SDS011;42618;51.226;4.910;2023-11-21T00:48:55;54.08;;;17.80;;
56736;SDS011;42618;51.226;4.910;2023-11-21T00:51:22;88.93;;;17.83;;
56736;SDS011;42618;51.226;4.910;2023-11-21T00:53:49;170.30;;;18.38;;
56736;SDS011;42618;51.226;4.910;2023-11-21T00:56:15;126.30;;;18.73;;
56736;SDS011;42618;51.226;4.910;2023-11-21T00:58:42;132.52;;;19.55;;
56736;SDS011;42618;51.226;4.910;2023-11-21T01:01:12;127.65;;;18.88;;
56736;SDS011;42618;51.226;4.910;2023-11-21T01:03:39;168.65;;;19.25;;
56736;SDS011;42618;51.226;4.910;2023-11-21T01:06:06;90.40;;;16.27;;
56736;SDS011;42618;51.226;4.910;2023-11-21T01:08:33;179.88;;;18.35;;
56736;SDS011;42618;51.226;4.910;2023-11-21T01:11:00;143.23;;;17.52;;
56736;SDS011;42618;51.226;4.910;2023-11-21T01:13:27;145.65;;;18.65;;
56736;SDS011;42618;51.226;4.910;2023-11-21T01:15:54;182.27;;;19.27;;
56736;SDS011;42618;51.226;4.910;2023-11-21T01:18:21;151.40;;;18.85;;
56736;SDS011;42618;51.226;4.910;2023-11-21T01:20:47;195.82;;;18.25;;
56736;SDS011;42618;51.226;4.910;2023-11-21T01:23:14;105.65;;;17.58;;
56736;SDS011;42618;51.226;4.910;2023-11-21T01:25:41;130.27;;;16.38;;
56736;SDS011;42618;51.226;4.910;2023-11-21T01:28:08;152.60;;;17.08;;
56736;SDS011;42618;51.226;4.910;2023-11-21T01:30:35;138.52;;;17.13;;
56736;SDS011;42618;51.226;4.910;2023-11-21T01:33:02;120.65;;;16.27;;
56736;SDS011;42618;51.226;4.910;2023-11-21T01:37:56;174.03;;;20.47;;
56736;SDS011;42618;51.226;4.910;2023-11-21T01:40:23;146.77;;;19.23;;
56736;SDS011;42618;51.226;4.910;2023-11-21T01:42:52;97.15;;;17.15;;
56736;SDS011;42618;51.226;4.910;2023-11-21T01:45:19;154.90;;;19.08;;
56736;SDS011;42618;51.226;4.910;2023-11-21T01:47:46;133.23;;;18.80;;
56736;SDS011;42618;51.226;4.910;2023-11-21T01:50:14;193.13;;;19.60;;
56736;SDS011;42618;51.226;4.910;2023-11-21T01:52:43;179.93;;;20.23;;
56736;SDS011;42618;51.226;4.910;2023-11-21T01:55:10;128.68;;;21.13;;
56736;SDS011;42618;51.226;4.910;2023-11-21T01:57:37;149.32;;;20.23;;
56736;SDS011;42618;51.226;4.910;2023-11-21T02:00:06;85.35;;;18.55;;
56736;SDS011;42618;51.226;4.910;2023-11-21T02:02:43;68.63;;;17.88;;
56736;SDS011;42618;51.226;4.910;2023-11-21T02:05:11;181.60;;;21.20;;
56736;SDS011;42618;51.226;4.910;2023-11-21T02:07:39;88.22;;;18.58;;
56736;SDS011;42618;51.226;4.910;2023-11-21T02:10:06;103.75;;;19.23;;
56736;SDS011;42618;51.226;4.910;2023-11-21T02:12:34;141.85;;;19.75;;
56736;SDS011;42618;51.226;4.910;2023-11-21T02:15:05;161.68;;;21.75;;
56736;SDS011;42618;51.226;4.910;2023-11-21T02:17:36;127.22;;;18.10;;
56736;SDS011;42618;51.226;4.910;2023-11-21T02:20:03;95.50;;;16.67;;
56736;SDS011;42618;51.226;4.910;2023-11-21T02:22:30;142.63;;;16.98;;
56736;SDS011;42618;51.226;4.910;2023-11-21T02:24:57;123.75;;;17.50;;
56736;SDS011;42618;51.226;4.910;2023-11-21T02:27:24;131.93;;;17.80;;
56736;SDS011;42618;51.226;4.910;2023-11-21T02:29:51;104.13;;;17.45;;
56736;SDS011;42618;51.226;4.910;2023-11-21T02:32:17;135.88;;;19.10;;
56736;SDS011;42618;51.226;4.910;2023-11-21T02:37:13;140.95;;;19.42;;
56736;SDS011;42618;51.226;4.910;2023-11-21T02:39:39;141.38;;;20.63;;
56736;SDS011;42618;51.226;4.910;2023-11-21T02:42:06;91.72;;;17.25;;
56736;SDS011;42618;51.226;4.910;2023-11-21T02:44:33;75.40;;;18.00;;
56736;SDS011;42618;51.226;4.910;2023-11-21T02:47:00;98.95;;;18.45;;
56736;SDS011;42618;51.226;4.910;2023-11-21T02:49:28;90.28;;;19.13;;
56736;SDS011;42618;51.226;4.910;2023-11-21T02:51:54;107.40;;;18.80;;
56736;SDS011;42618;51.226;4.910;2023-11-21T02:54:21;91.47;;;17.83;;
56736;SDS011;42618;51.226;4.910;2023-11-21T02:56:51;96.80;;;18.58;;
56736;SDS011;42618;51.226;4.910;2023-11-21T02:59:17;88.22;;;19.50;;
56736;SDS011;42618;51.226;4.910;2023-11-21T03:01:44;87.97;;;19.27;;
56736;SDS011;42618;51.226;4.910;2023-11-21T03:04:11;89.00;;;20.13;;
56736;SDS011;42618;51.226;4.910;2023-11-21T03:06:44;61.20;;;18.63;;
56736;SDS011;42618;51.226;4.910;2023-11-21T03:09:11;84.65;;;17.75;;
56736;SDS011;42618;51.226;4.910;2023-11-21T03:11:38;102.45;;;19.67;;
56736;SDS011;42618;51.226;4.910;2023-11-21T03:14:05;89.22;;;18.83;;
56736;SDS011;42618;51.226;4.910;2023-11-21T03:16:32;105.15;;;19.15;;
56736;SDS011;42618;51.226;4.910;2023-11-21T03:18:59;75.25;;;18.10;;
56736;SDS011;42618;51.226;4.910;2023-11-21T03:21:27;104.53;;;18.58;;
56736;SDS011;42618;51.226;4.910;2023-11-21T03:23:53;94.53;;;18.50;;
56736;SDS011;42618;51.226;4.910;2023-11-21T03:26:20;104.32;;;19.20;;
56736;SDS011;42618;51.226;4.910;2023-11-21T03:28:47;106.25;;;19.08;;
56736;SDS011;42618;51.226;4.910;2023-11-21T03:31:13;129.00;;;19.23;;
56736;SDS011;42618;51.226;4.910;2023-11-21T03:33:40;65.88;;;17.27;;
56736;SDS011;42618;51.226;4.910;2023-11-21T03:36:07;79.10;;;18.83;;
56736;SDS011;42618;51.226;4.910;2023-11-21T03:38:34;73.03;;;18.90;;
56736;SDS011;42618;51.226;4.910;2023-11-21T03:41:01;92.38;;;20.10;;
56736;SDS011;42618;51.226;4.910;2023-11-21T03:43:27;76.15;;;19.80;;
56736;SDS011;42618;51.226;4.910;2023-11-21T03:45:54;85.05;;;20.13;;
56736;SDS011;42618;51.226;4.910;2023-11-21T03:48:21;69.47;;;18.75;;
56736;SDS011;42618;51.226;4.910;2023-11-21T03:50:47;69.43;;;19.65;;
56736;SDS011;42618;51.226;4.910;2023-11-21T03:53:14;78.45;;;20.50;;
56736;SDS011;42618;51.226;4.910;2023-11-21T03:55:40;64.95;;;19.73;;
56736;SDS011;42618;51.226;4.910;2023-11-21T03:58:07;70.82;;;20.40;;
56736;SDS011;42618;51.226;4.910;2023-11-21T04:00:34;64.28;;;19.90;;
56736;SDS011;42618;51.226;4.910;2023-11-21T04:03:00;89.82;;;19.50;;
56736;SDS011;42618;51.226;4.910;2023-11-21T04:05:27;64.93;;;19.50;;
56736;SDS011;42618;51.226;4.910;2023-11-21T04:07:54;58.17;;;20.05;;
56736;SDS011;42618;51.226;4.910;2023-11-21T04:10:20;63.60;;;20.25;;
56736;SDS011;42618;51.226;4.910;2023-11-21T04:12:48;64.88;;;20.45;;
56736;SDS011;42618;51.226;4.910;2023-11-21T04:15:14;73.72;;;21.33;;
56736;SDS011;42618;51.226;4.910;2023-11-21T04:17:41;57.95;;;22.08;;
56736;SDS011;42618;51.226;4.910;2023-11-21T04:20:08;50.75;;;20.48;;
56736;SDS011;42618;51.226;4.910;2023-11-21T04:22:39;47.10;;;20.45;;
56736;SDS011;42618;51.226;4.910;2023-11-21T04:25:08;47.45;;;21.13;;
56736;SDS011;42618;51.226;4.910;2023-11-21T04:27:35;46.40;;;19.77;;
56736;SDS011;42618;51.226;4.910;2023-11-21T04:30:02;47.50;;;21.65;;
56736;SDS011;42618;51.226;4.910;2023-11-21T04:32:29;50.28;;;20.40;;
56736;SDS011;42618;51.226;4.910;2023-11-21T04:34:55;62.63;;;23.98;;
56736;SDS011;42618;51.226;4.910;2023-11-21T04:37:22;58.33;;;22.15;;
56736;SDS011;42618;51.226;4.910;2023-11-21T04:39:49;47.90;;;20.88;;
56736;SDS011;42618;51.226;4.910;2023-11-21T04:42:15;44.47;;;20.50;;
56736;SDS011;42618;51.226;4.910;2023-11-21T04:44:42;52.10;;;20.73;;
56736;SDS011;42618;51.226;4.910;2023-11-21T04:49:37;62.70;;;23.67;;
56736;SDS011;42618;51.226;4.910;2023-11-21T04:52:06;61.22;;;25.05;;
56736;SDS011;42618;51.226;4.910;2023-11-21T04:54:35;65.40;;;24.67;;
56736;SDS011;42618;51.226;4.910;2023-11-21T04:57:02;76.00;;;27.90;;
56736;SDS011;42618;51.226;4.910;2023-11-21T04:59:29;63.20;;;26.47;;
56736;SDS011;42618;51.226;4.910;2023-11-21T05:01:55;60.55;;;25.50;;
56736;SDS011;42618;51.226;4.910;2023-11-21T05:04:22;68.60;;;27.83;;
56736;SDS011;42618;51.226;4.910;2023-11-21T05:06:49;76.20;;;29.55;;
56736;SDS011;42618;51.226;4.910;2023-11-21T05:09:16;60.97;;;25.80;;
56736;SDS011;42618;51.226;4.910;2023-11-21T05:11:43;60.05;;;24.52;;
56736;SDS011;42618;51.226;4.910;2023-11-21T05:14:09;51.65;;;22.58;;
56736;SDS011;42618;51.226;4.910;2023-11-21T05:16:36;52.65;;;22.52;;
56736;SDS011;42618;51.226;4.910;2023-11-21T05:19:04;51.08;;;22.17;;
56736;SDS011;42618;51.226;4.910;2023-11-21T05:21:31;57.60;;;23.50;;
56736;SDS011;42618;51.226;4.910;2023-11-21T05:23:59;49.03;;;22.80;;
56736;SDS011;42618;51.226;4.910;2023-11-21T05:26:25;58.20;;;23.15;;
56736;SDS011;42618;51.226;4.910;2023-11-21T05:28:52;50.75;;;23.02;;
56736;SDS011;42618;51.226;4.910;2023-11-21T05:31:19;60.90;;;23.55;;
56736;SDS011;42618;51.226;4.910;2023-11-21T05:33:46;51.80;;;22.63;;
56736;SDS011;42618;51.226;4.910;2023-11-21T05:36:13;53.92;;;23.42;;
56736;SDS011;42618;51.226;4.910;2023-11-21T05:38:40;53.20;;;22.83;;
56736;SDS011;42618;51.226;4.910;2023-11-21T05:43:37;54.97;;;22.90;;
56736;SDS011;42618;51.226;4.910;2023-11-21T05:46:04;52.03;;;23.50;;
56736;SDS011;42618;51.226;4.910;2023-11-21T05:48:30;54.88;;;23.00;;
56736;SDS011;42618;51.226;4.910;2023-11-21T05:50:57;50.10;;;23.57;;
56736;SDS011;42618;51.226;4.910;2023-11-21T05:53:25;48.15;;;22.35;;
56736;SDS011;42618;51.226;4.910;2023-11-21T05:55:52;54.00;;;23.30;;
56736;SDS011;42618;51.226;4.910;2023-11-21T05:58:18;54.15;;;21.33;;
56736;SDS011;42618;51.226;4.910;2023-11-21T06:00:45;50.35;;;22.08;;
56736;SDS011;42618;51.226;4.910;2023-11-21T06:03:12;50.50;;;22.08;;
56736;SDS011;42618;51.226;4.910;2023-11-21T06:05:39;60.50;;;23.37;;
56736;SDS011;42618;51.226;4.910;2023-11-21T06:08:05;54.50;;;23.80;;
56736;SDS011;42618;51.226;4.910;2023-11-21T06:10:33;50.25;;;22.67;;
56736;SDS011;42618;51.226;4.910;2023-11-21T06:13:00;56.50;;;23.75;;
56736;SDS011;42618;51.226;4.910;2023-11-21T06:15:30;47.10;;;23.13;;
56736;SDS011;42618;51.226;4.910;2023-11-21T06:17:56;57.83;;;22.73;;
56736;SDS011;42618;51.226;4.910;2023-11-21T06:20:23;69.25;;;28.38;;
56736;SDS011;42618;51.226;4.910;2023-11-21T06:22:50;64.95;;;28.27;;
56736;SDS011;42618;51.226;4.910;2023-11-21T06:25:17;65.18;;;27.58;;
56736;SDS011;42618;51.226;4.910;2023-11-21T06:27:45;63.65;;;25.85;;
56736;SDS011;42618;51.226;4.910;2023-11-21T06:30:12;63.20;;;26.17;;
56736;SDS011;42618;51.226;4.910;2023-11-21T06:32:40;59.65;;;25.23;;
56736;SDS011;42618;51.226;4.910;2023-11-21T06:35:07;64.33;;;25.97;;
56736;SDS011;42618;51.226;4.910;2023-11-21T06:37:36;62.28;;;27.15;;
56736;SDS011;42618;51.226;4.910;2023-11-21T06:40:03;73.05;;;27.15;;
56736;SDS011;42618;51.226;4.910;2023-11-21T06:42:30;60.80;;;26.52;;
56736;SDS011;42618;51.226;4.910;2023-11-21T06:44:57;60.10;;;26.00;;
56736;SDS011;42618;51.226;4.910;2023-11-21T06:47:24;63.88;;;26.23;;
56736;SDS011;42618;51.226;4.910;2023-11-21T06:49:51;61.25;;;25.85;;
56736;SDS011;42618;51.226;4.910;2023-11-21T06:52:19;73.70;;;28.35;;
56736;SDS011;42618;51.226;4.910;2023-11-21T06:54:47;53.03;;;23.97;;
56736;SDS011;42618;51.226;4.910;2023-11-21T06:57:13;65.10;;;24.35;;
56736;SDS011;42618;51.226;4.910;2023-11-21T06:59:40;63.55;;;24.75;;
56736;SDS011;42618;51.226;4.910;2023-11-21T07:02:07;62.50;;;23.45;;
56736;SDS011;42618;51.226;4.910;2023-11-21T07:04:37;56.17;;;23.38;;
56736;SDS011;42618;51.226;4.910;2023-11-21T07:07:05;74.32;;;24.92;;
56736;SDS011;42618;51.226;4.910;2023-11-21T07:09:33;66.43;;;24.05;;
56736;SDS011;42618;51.226;4.910;2023-11-21T07:12:00;64.07;;;24.80;;
56736;SDS011;42618;51.226;4.910;2023-11-21T07:14:26;70.53;;;25.65;;
56736;SDS011;42618;51.226;4.910;2023-11-21T07:16:53;69.95;;;25.27;;
56736;SDS011;42618;51.226;4.910;2023-11-21T07:19:20;65.32;;;24.30;;
56736;SDS011;42618;51.226;4.910;2023-11-21T07:21:47;66.15;;;25.10;;
56736;SDS011;42618;51.226;4.910;2023-11-21T07:24:17;70.68;;;25.05;;
56736;SDS011;42618;51.226;4.910;2023-11-21T07:26:43;77.82;;;27.77;;
56736;SDS011;42618;51.226;4.910;2023-11-21T07:29:10;83.50;;;29.95;;
56736;SDS011;42618;51.226;4.910;2023-11-21T07:31:38;73.78;;;25.48;;
56736;SDS011;42618;51.226;4.910;2023-11-21T07:34:05;69.32;;;25.70;;
56736;SDS011;42618;51.226;4.910;2023-11-21T07:36:32;72.43;;;25.98;;
56736;SDS011;42618;51.226;4.910;2023-11-21T07:38:58;75.53;;;24.63;;
56736;SDS011;42618;51.226;4.910;2023-11-21T07:41:25;77.05;;;25.75;;
56736;SDS011;42618;51.226;4.910;2023-11-21T07:43:57;67.03;;;25.27;;
56736;SDS011;42618;51.226;4.910;2023-11-21T07:46:25;60.80;;;24.27;;
56736;SDS011;42618;51.226;4.910;2023-11-21T07:48:53;63.95;;;25.17;;
56736;SDS011;42618;51.226;4.910;2023-11-21T07:51:19;71.78;;;25.08;;
56736;SDS011;42618;51.226;4.910;2023-11-21T07:53:46;65.93;;;26.00;;
56736;SDS011;42618;51.226;4.910;2023-11-21T07:56:13;63.67;;;25.23;;
56736;SDS011;42618;51.226;4.910;2023-11-21T07:58:39;77.85;;;28.40;;
56736;SDS011;42618;51.226;4.910;2023-11-21T08:01:06;74.22;;;28.08;;
56736;SDS011;42618;51.226;4.910;2023-11-21T08:03:34;73.75;;;27.90;;
56736;SDS011;42618;51.226;4.910;2023-11-21T08:06:01;69.55;;;26.13;;
56736;SDS011;42618;51.226;4.910;2023-11-21T08:08:29;65.90;;;25.00;;
56736;SDS011;42618;51.226;4.910;2023-11-21T08:10:56;68.57;;;25.95;;
56736;SDS011;42618;51.226;4.910;2023-11-21T08:13:23;61.40;;;25.35;;
56736;SDS011;42618;51.226;4.910;2023-11-21T08:15:50;99.38;;;44.50;;
56736;SDS011;42618;51.226;4.910;2023-11-21T08:18:17;290.38;;;114.80;;
56736;SDS011;42618;51.226;4.910;2023-11-21T08:20:44;141.13;;;55.60;;
56736;SDS011;42618;51.226;4.910;2023-11-21T08:23:17;90.55;;;36.22;;
56736;SDS011;42618;51.226;4.910;2023-11-21T08:25:43;77.68;;;28.75;;
56736;SDS011;42618;51.226;4.910;2023-11-21T08:28:10;81.13;;;28.57;;
56736;SDS011;42618;51.226;4.910;2023-11-21T08:30:37;62.15;;;24.88;;
56736;SDS011;42618;51.226;4.910;2023-11-21T08:33:04;65.80;;;25.08;;
56736;SDS011;42618;51.226;4.910;2023-11-21T08:35:30;65.25;;;25.08;;
56736;SDS011;42618;51.226;4.910;2023-11-21T08:37:58;65.30;;;24.63;;
56736;SDS011;42618;51.226;4.910;2023-11-21T08:40:24;62.75;;;24.25;;
56736;SDS011;42618;51.226;4.910;2023-11-21T08:42:59;51.73;;;21.80;;
56736;SDS011;42618;51.226;4.910;2023-11-21T08:45:32;61.97;;;22.50;;
56736;SDS011;42618;51.226;4.910;2023-11-21T08:50:27;68.20;;;25.42;;
56736;SDS011;42618;51.226;4.910;2023-11-21T08:52:53;77.00;;;25.63;;
56736;SDS011;42618;51.226;4.910;2023-11-21T08:55:20;98.20;;;30.52;;
56736;SDS011;42618;51.226;4.910;2023-11-21T08:57:47;86.68;;;29.85;;
56736;SDS011;42618;51.226;4.910;2023-11-21T09:00:14;87.85;;;34.33;;
56736;SDS011;42618;51.226;4.910;2023-11-21T09:02:43;67.88;;;26.58;;
56736;SDS011;42618;51.226;4.910;2023-11-21T09:05:11;56.90;;;23.42;;
56736;SDS011;42618;51.226;4.910;2023-11-21T09:07:38;63.33;;;24.58;;
56736;SDS011;42618;51.226;4.910;2023-11-21T09:10:05;67.97;;;23.60;;
56736;SDS011;42618;51.226;4.910;2023-11-21T09:12:34;58.17;;;22.00;;
56736;SDS011;42618;51.226;4.910;2023-11-21T09:15:04;57.35;;;23.40;;
56736;SDS011;42618;51.226;4.910;2023-11-21T09:17:32;74.28;;;26.27;;
56736;SDS011;42618;51.226;4.910;2023-11-21T09:19:59;80.68;;;27.73;;
56736;SDS011;42618;51.226;4.910;2023-11-21T09:22:26;88.93;;;27.70;;
56736;SDS011;42618;51.226;4.910;2023-11-21T09:24:53;72.32;;;25.42;;
56736;SDS011;42618;51.226;4.910;2023-11-21T09:27:20;64.10;;;22.70;;
56736;SDS011;42618;51.226;4.910;2023-11-21T09:32:15;83.90;;;26.80;;
56736;SDS011;42618;51.226;4.910;2023-11-21T09:34:45;76.78;;;26.27;;
56736;SDS011;42618;51.226;4.910;2023-11-21T09:37:11;73.30;;;21.80;;
56736;SDS011;42618;51.226;4.910;2023-11-21T09:39:38;52.20;;;18.58;;
56736;SDS011;42618;51.226;4.910;2023-11-21T09:47:26;48.00;;;18.15;;
56736;SDS011;42618;51.226;4.910;2023-11-21T09:49:54;63.38;;;21.20;;
56736;SDS011;42618;51.226;4.910;2023-11-21T09:52:26;82.53;;;26.63;;
56736;SDS011;42618;51.226;4.910;2023-11-21T09:54:53;79.70;;;28.90;;
56736;SDS011;42618;51.226;4.910;2023-11-21T09:57:20;83.25;;;26.17;;
56736;SDS011;42618;51.226;4.910;2023-11-21T09:59:51;64.95;;;22.60;;
56736;SDS011;42618;51.226;4.910;2023-11-21T10:02:25;60.72;;;20.05;;
56736;SDS011;42618;51.226;4.910;2023-11-21T10:04:52;60.00;;;20.35;;
56736;SDS011;42618;51.226;4.910;2023-11-21T10:07:20;66.82;;;21.25;;
56736;SDS011;42618;51.226;4.910;2023-11-21T10:09:47;75.45;;;25.75;;
56736;SDS011;42618;51.226;4.910;2023-11-21T10:12:15;67.38;;;22.80;;
56736;SDS011;42618;51.226;4.910;2023-11-21T10:14:41;62.33;;;20.73;;
56736;SDS011;42618;51.226;4.910;2023-11-21T10:17:13;71.55;;;20.08;;
56736;SDS011;42618;51.226;4.910;2023-11-21T10:19:42;56.00;;;19.13;;
56736;SDS011;42618;51.226;4.910;2023-11-21T10:22:09;70.03;;;20.88;;
56736;SDS011;42618;51.226;4.910;2023-11-21T10:24:36;68.50;;;20.27;;
56736;SDS011;42618;51.226;4.910;2023-11-21T10:27:17;50.67;;;18.27;;
56736;SDS011;42618;51.226;4.910;2023-11-21T10:29:44;47.45;;;17.98;;
56736;SDS011;42618;51.226;4.910;2023-11-21T10:32:13;56.42;;;18.23;;
56736;SDS011;42618;51.226;4.910;2023-11-21T10:34:39;46.10;;;16.48;;
56736;SDS011;42618;51.226;4.910;2023-11-21T10:37:14;42.50;;;15.70;;
56736;SDS011;42618;51.226;4.910;2023-11-21T10:39:43;42.72;;;14.85;;
56736;SDS011;42618;51.226;4.910;2023-11-21T10:42:11;48.38;;;16.20;;
56736;SDS011;42618;51.226;4.910;2023-11-21T10:44:38;44.30;;;15.05;;
56736;SDS011;42618;51.226;4.910;2023-11-21T10:47:05;41.33;;;14.35;;
56736;SDS011;42618;51.226;4.910;2023-11-21T10:49:34;123.13;;;52.30;;
56736;SDS011;42618;51.226;4.910;2023-11-21T10:52:03;87.00;;;32.97;;
56736;SDS011;42618;51.226;4.910;2023-11-21T10:54:30;32.63;;;13.93;;
56736;SDS011;42618;51.226;4.910;2023-11-21T10:56:59;34.17;;;13.68;;
56736;SDS011;42618;51.226;4.910;2023-11-21T10:59:30;22.38;;;11.27;;
56736;SDS011;42618;51.226;4.910;2023-11-21T11:01:58;63.85;;;18.65;;
56736;SDS011;42618;51.226;4.910;2023-11-21T11:04:27;29.20;;;11.98;;
56736;SDS011;42618;51.226;4.910;2023-11-21T11:06:54;27.43;;;12.20;;
56736;SDS011;42618;51.226;4.910;2023-11-21T11:09:23;24.20;;;11.77;;
56736;SDS011;42618;51.226;4.910;2023-11-21T11:11:50;24.88;;;11.57;;
56736;SDS011;42618;51.226;4.910;2023-11-21T11:14:17;26.13;;;12.38;;
56736;SDS011;42618;51.226;4.910;2023-11-21T11:16:46;21.45;;;10.85;;
56736;SDS011;42618;51.226;4.910;2023-11-21T11:19:13;29.50;;;12.35;;
56736;SDS011;42618;51.226;4.910;2023-11-21T11:34:41;17.92;;;7.20;;
56736;SDS011;42618;51.226;4.910;2023-11-21T11:37:11;13.65;;;6.07;;
56736;SDS011;42618;51.226;4.910;2023-11-21T11:39:42;10.63;;;4.25;;
56736;SDS011;42618;51.226;4.910;2023-11-21T11:42:15;71.60;;;21.85;;
56736;SDS011;42618;51.226;4.910;2023-11-21T11:52:44;44.15;;;13.20;;
56736;SDS011;42618;51.226;4.910;2023-11-21T11:55:15;20.30;;;7.35;;
56736;SDS011;42618;51.226;4.910;2023-11-21T11:57:48;11.18;;;5.10;;
56736;SDS011;42618;51.226;4.910;2023-11-21T12:03:00;7.25;;;4.43;;
56736;SDS011;42618;51.226;4.910;2023-11-21T12:05:31;9.75;;;5.30;;
56736;SDS011;42618;51.226;4.910;2023-11-21T12:08:11;10.27;;;5.32;;
56736;SDS011;42618;51.226;4.910;2023-11-21T12:10:38;12.00;;;6.63;;
56736;SDS011;42618;51.226;4.910;2023-11-21T12:13:06;13.82;;;6.88;;
56736;SDS011;42618;51.226;4.910;2023-11-21T12:15:37;12.25;;;6.85;;
56736;SDS011;42618;51.226;4.910;2023-11-21T12:18:06;19.48;;;9.10;;
56736;SDS011;42618;51.226;4.910;2023-11-21T12:20:33;71.53;;;31.15;;
56736;SDS011;42618;51.226;4.910;2023-11-21T12:23:05;46.00;;;23.02;;
56736;SDS011;42618;51.226;4.910;2023-11-21T12:25:32;20.90;;;10.38;;
56736;SDS011;42618;51.226;4.910;2023-11-21T12:28:01;12.55;;;7.03;;
56736;SDS011;42618;51.226;4.910;2023-11-21T12:30:30;15.38;;;7.30;;
56736;SDS011;42618;51.226;4.910;2023-11-21T12:33:01;13.23;;;6.97;;
56736;SDS011;42618;51.226;4.910;2023-11-21T12:35:30;11.98;;;6.30;;
56736;SDS011;42618;51.226;4.910;2023-11-21T12:38:00;11.13;;;6.75;;
56736;SDS011;42618;51.226;4.910;2023-11-21T12:40:29;10.90;;;5.78;;
56736;SDS011;42618;51.226;4.910;2023-11-21T12:42:56;15.43;;;7.30;;
56736;SDS011;42618;51.226;4.910;2023-11-21T12:45:24;12.60;;;7.43;;
56736;SDS011;42618;51.226;4.910;2023-11-21T12:47:55;16.30;;;7.20;;
56736;SDS011;42618;51.226;4.910;2023-11-21T12:50:23;12.68;;;6.30;;
56736;SDS011;42618;51.226;4.910;2023-11-21T12:52:51;12.10;;;5.20;;
56736;SDS011;42618;51.226;4.910;2023-11-21T12:55:20;10.77;;;5.97;;
56736;SDS011;42618;51.226;4.910;2023-11-21T12:57:51;6.25;;;3.80;;
56736;SDS011;42618;51.226;4.910;2023-11-21T13:00:34;7.68;;;3.90;;
56736;SDS011;42618;51.226;4.910;2023-11-21T13:03:04;53.60;;;28.88;;
56736;SDS011;42618;51.226;4.910;2023-11-21T13:05:34;28.95;;;17.48;;
56736;SDS011;42618;51.226;4.910;2023-11-21T13:08:02;19.13;;;11.23;;
56736;SDS011;42618;51.226;4.910;2023-11-21T13:10:30;13.02;;;6.90;;
56736;SDS011;42618;51.226;4.910;2023-11-21T13:12:58;8.65;;;5.90;;
56736;SDS011;42618;51.226;4.910;2023-11-21T13:15:25;8.55;;;5.28;;
56736;SDS011;42618;51.226;4.910;2023-11-21T13:17:51;9.18;;;5.15;;
56736;SDS011;42618;51.226;4.910;2023-11-21T13:20:20;9.07;;;5.25;;
56736;SDS011;42618;51.226;4.910;2023-11-21T13:25:16;11.57;;;5.53;;
56736;SDS011;42618;51.226;4.910;2023-11-21T13:27:44;12.75;;;5.63;;
56736;SDS011;42618;51.226;4.910;2023-11-21T13:30:13;9.93;;;5.38;;
56736;SDS011;42618;51.226;4.910;2023-11-21T13:32:44;11.93;;;5.95;;
56736;SDS011;42618;51.226;4.910;2023-11-21T13:35:18;11.13;;;6.25;;
56736;SDS011;42618;51.226;4.910;2023-11-21T13:37:48;12.40;;;6.97;;
56736;SDS011;42618;51.226;4.910;2023-11-21T13:40:15;9.90;;;5.88;;
56736;SDS011;42618;51.226;4.910;2023-11-21T13:42:46;12.13;;;6.57;;
56736;SDS011;42618;51.226;4.910;2023-11-21T13:45:13;17.75;;;7.50;;
56736;SDS011;42618;51.226;4.910;2023-11-21T13:47:40;13.23;;;6.43;;
56736;SDS011;42618;51.226;4.910;2023-11-21T13:50:07;11.35;;;6.90;;
56736;SDS011;42618;51.226;4.910;2023-11-21T13:52:43;11.93;;;6.55;;
56736;SDS011;42618;51.226;4.910;2023-11-21T13:55:10;12.98;;;6.70;;
56736;SDS011;42618;51.226;4.910;2023-11-21T13:57:42;13.75;;;7.50;;
56736;SDS011;42618;51.226;4.910;2023-11-21T14:00:16;14.35;;;5.95;;
56736;SDS011;42618;51.226;4.910;2023-11-21T14:03:01;13.57;;;6.65;;
56736;SDS011;42618;51.226;4.910;2023-11-21T14:05:31;17.58;;;7.18;;
56736;SDS011;42618;51.226;4.910;2023-11-21T14:08:00;13.18;;;7.30;;
56736;SDS011;42618;51.226;4.910;2023-11-21T14:10:31;12.10;;;6.75;;
56736;SDS011;42618;51.226;4.910;2023-11-21T14:13:09;12.30;;;6.75;;
56736;SDS011;42618;51.226;4.910;2023-11-21T14:15:36;14.27;;;6.68;;
56736;SDS011;42618;51.226;4.910;2023-11-21T14:18:09;13.55;;;7.30;;
56736;SDS011;42618;51.226;4.910;2023-11-21T14:20:43;16.42;;;6.80;;
56736;SDS011;42618;51.226;4.910;2023-11-21T14:23:11;12.07;;;7.03;;
56736;SDS011;42618;51.226;4.910;2023-11-21T14:25:38;18.15;;;7.65;;
56736;SDS011;42618;51.226;4.910;2023-11-21T14:28:06;23.52;;;10.10;;
56736;SDS011;42618;51.226;4.910;2023-11-21T14:30:32;16.52;;;8.25;;
56736;SDS011;42618;51.226;4.910;2023-11-21T14:33:02;16.83;;;8.95;;
56736;SDS011;42618;51.226;4.910;2023-11-21T14:35:30;14.82;;;7.93;;
56736;SDS011;42618;51.226;4.910;2023-11-21T14:37:59;16.10;;;7.95;;
56736;SDS011;42618;51.226;4.910;2023-11-21T14:40:27;15.32;;;8.15;;
56736;SDS011;42618;51.226;4.910;2023-11-21T14:42:59;18.92;;;9.10;;
56736;SDS011;42618;51.226;4.910;2023-11-21T14:45:26;16.63;;;8.23;;
56736;SDS011;42618;51.226;4.910;2023-11-21T14:47:53;17.03;;;8.63;;
56736;SDS011;42618;51.226;4.910;2023-11-21T14:50:33;18.20;;;9.00;;
56736;SDS011;42618;51.226;4.910;2023-11-21T14:53:15;19.20;;;8.50;;
56736;SDS011;42618;51.226;4.910;2023-11-21T14:55:47;13.02;;;7.50;;
56736;SDS011;42618;51.226;4.910;2023-11-21T14:58:19;20.92;;;7.90;;
56736;SDS011;42618;51.226;4.910;2023-11-21T15:00:53;18.27;;;7.70;;
56736;SDS011;42618;51.226;4.910;2023-11-21T15:03:24;16.45;;;7.70;;
56736;SDS011;42618;51.226;4.910;2023-11-21T15:05:58;15.73;;;7.82;;
56736;SDS011;42618;51.226;4.910;2023-11-21T15:08:25;16.83;;;8.27;;
56736;SDS011;42618;51.226;4.910;2023-11-21T15:10:58;18.27;;;8.68;;
56736;SDS011;42618;51.226;4.910;2023-11-21T15:13:25;18.38;;;8.73;;
56736;SDS011;42618;51.226;4.910;2023-11-21T15:15:54;21.30;;;9.30;;